createdAt,value
2018-01-24T00:00:05.235Z,17.97
2018-01-24T00:02:32.768Z,16.60
2018-01-24T00:05:01.043Z,13.77
2018-01-24T00:07:29.348Z,14.60
2018-01-24T00:09:56.863Z,13.47
2018-01-24T00:12:24.377Z,13.00
2018-01-24T00:14:51.905Z,10.53
2018-01-24T00:17:20.186Z,13.30
2018-01-24T00:19:47.719Z,15.43
2018-01-24T00:22:15.227Z,14.13
2018-01-24T00:24:42.764Z,15.30
2018-01-24T00:27:10.271Z,15.93
2018-01-24T00:29:37.799Z,15.17
2018-01-24T00:32:05.312Z,18.07
2018-01-24T00:34:32.843Z,23.10
2018-01-24T00:37:00.387Z,16.30
2018-01-24T00:39:27.901Z,17.00
2018-01-24T00:41:56.195Z,13.63
2018-01-24T00:44:23.718Z,15.73
2018-01-24T00:46:51.245Z,14.70
2018-01-24T00:49:18.764Z,13.30
2018-01-24T00:51:46.296Z,13.93
2018-01-24T00:54:14.571Z,15.07
2018-01-24T00:56:42.100Z,17.73
2018-01-24T00:59:09.612Z,18.07
2018-01-24T01:01:37.156Z,16.37
2018-01-24T01:04:04.665Z,20.10
2018-01-24T01:06:32.170Z,14.30
2018-01-24T01:08:59.699Z,15.20
2018-01-24T01:11:27.213Z,19.73
2018-01-24T01:13:54.738Z,24.20
2018-01-24T01:16:23.016Z,14.87
2018-01-24T01:18:51.308Z,18.90
2018-01-24T01:21:18.816Z,20.87
2018-01-24T01:23:46.343Z,23.07
2018-01-24T01:26:13.852Z,19.13
2018-01-24T01:28:41.383Z,17.40
2018-01-24T01:31:08.893Z,17.37
2018-01-24T01:33:37.189Z,21.73
2018-01-24T01:36:04.704Z,15.83
2018-01-24T01:38:32.216Z,19.93
2018-01-24T01:40:59.752Z,21.53
2018-01-24T01:43:27.263Z,19.47
2018-01-24T01:45:54.800Z,19.03
2018-01-24T01:48:32.130Z,18.77
2018-01-24T01:51:00.430Z,21.67
2018-01-24T01:53:27.932Z,19.40
2018-01-24T01:55:55.466Z,18.67
2018-01-24T01:58:22.979Z,18.50
2018-01-24T02:00:51.285Z,20.43
2018-01-24T02:03:18.801Z,21.90
2018-01-24T02:05:46.331Z,18.13
2018-01-24T02:08:13.840Z,19.80
2018-01-24T02:10:42.144Z,17.37
2018-01-24T02:13:09.663Z,17.10
2018-01-24T02:15:37.936Z,16.27
2018-01-24T02:18:06.232Z,19.93
2018-01-24T02:20:34.503Z,21.80
2018-01-24T02:23:02.799Z,18.83
2018-01-24T02:25:30.315Z,24.20
2018-01-24T02:27:57.844Z,21.33
2018-01-24T02:30:25.360Z,22.47
2018-01-24T02:32:52.891Z,25.73
2018-01-24T02:35:20.405Z,23.20
2018-01-24T02:37:47.936Z,27.13
2018-01-24T02:40:16.231Z,22.70
2018-01-24T02:42:43.773Z,28.37
2018-01-24T02:45:11.285Z,24.43
2018-01-24T02:47:38.799Z,30.60
2018-01-24T02:50:06.338Z,35.97
2018-01-24T02:52:34.629Z,22.50
2018-01-24T02:55:02.169Z,28.57
2018-01-24T02:57:29.687Z,29.00
2018-01-24T02:59:57.221Z,29.27
2018-01-24T03:02:24.736Z,29.83
2018-01-24T03:04:53.040Z,24.67
2018-01-24T03:07:20.562Z,37.70
2018-01-24T03:09:48.867Z,32.37
2018-01-24T03:12:16.381Z,30.37
2018-01-24T03:14:43.930Z,33.13
2018-01-24T03:17:11.435Z,36.47
2018-01-24T03:19:38.950Z,34.73
2018-01-24T03:22:06.483Z,30.67
2018-01-24T03:24:33.990Z,29.33
2018-01-24T03:27:01.527Z,31.80
2018-01-24T03:29:29.044Z,31.43
2018-01-24T03:31:56.567Z,37.23
2018-01-24T03:34:24.845Z,38.77
2018-01-24T03:36:52.396Z,31.53
2018-01-24T03:39:20.672Z,35.37
2018-01-24T03:41:48.979Z,35.43
2018-01-24T03:44:16.499Z,30.87
2018-01-24T03:46:44.011Z,27.70
2018-01-24T03:49:11.552Z,36.90
2018-01-24T03:51:39.063Z,39.57
2018-01-24T03:54:06.593Z,31.57
2018-01-24T03:56:34.103Z,35.07
2018-01-24T03:59:02.404Z,32.90
2018-01-24T04:01:29.923Z,31.00
2018-01-24T04:03:57.455Z,35.40
2018-01-24T04:06:24.967Z,33.90
2018-01-24T04:08:52.499Z,31.33
2018-01-24T04:11:20.783Z,26.57
2018-01-24T04:13:49.100Z,28.93
2018-01-24T04:16:16.613Z,31.37
2018-01-24T04:18:44.887Z,28.27
2018-01-24T04:21:13.191Z,31.60
2018-01-24T04:23:40.704Z,23.50
2018-01-24T04:26:08.243Z,25.63
2018-01-24T04:28:35.759Z,27.93
2018-01-24T04:31:03.291Z,27.43
2018-01-24T04:33:31.573Z,31.23
2018-01-24T04:35:59.875Z,24.70
2018-01-24T04:38:27.394Z,25.80
2018-01-24T04:40:54.931Z,27.50
2018-01-24T04:43:22.445Z,23.97
2018-01-24T04:45:49.980Z,29.57
2018-01-24T04:48:18.259Z,32.63
2018-01-24T04:50:46.575Z,25.40
2018-01-24T04:53:14.079Z,27.93
2018-01-24T04:55:41.595Z,25.63
2018-01-24T04:58:09.131Z,26.80
2018-01-24T05:00:36.652Z,27.90
2018-01-24T05:03:04.183Z,26.33
2018-01-24T05:05:31.696Z,25.00
2018-01-24T05:07:59.222Z,24.60
2018-01-24T05:10:26.744Z,26.17
2018-01-24T05:12:54.276Z,23.33
2018-01-24T05:15:21.788Z,26.27
2018-01-24T05:17:49.320Z,24.90
2018-01-24T05:20:16.832Z,24.93
2018-01-24T05:22:44.367Z,26.00
2018-01-24T05:25:11.875Z,31.40
2018-01-24T05:27:39.387Z,20.33
2018-01-24T05:30:06.919Z,23.27
2018-01-24T05:32:34.436Z,24.77
2018-01-24T05:35:01.973Z,21.40
2018-01-24T05:37:30.262Z,26.67
2018-01-24T05:39:57.804Z,28.50
2018-01-24T05:42:26.083Z,19.47
2018-01-24T05:44:54.385Z,26.90
2018-01-24T05:47:21.899Z,24.77
2018-01-24T05:49:49.432Z,27.23
2018-01-24T05:52:16.957Z,26.47
2018-01-24T05:54:44.463Z,22.63
2018-01-24T05:57:11.992Z,29.40
2018-01-24T05:59:39.511Z,22.53
2018-01-24T06:02:07.820Z,27.03
2018-01-24T06:04:35.332Z,23.10
2018-01-24T06:07:02.863Z,35.73
2018-01-24T06:09:30.372Z,27.30
2018-01-24T06:11:57.906Z,25.30
2018-01-24T06:14:25.419Z,22.43
2018-01-24T06:16:52.947Z,19.87
2018-01-24T06:19:20.462Z,22.63
2018-01-24T06:21:47.999Z,28.43
2018-01-24T06:24:15.515Z,24.40
2018-01-24T06:26:43.052Z,22.87
2018-01-24T06:29:10.570Z,22.97
2018-01-24T06:31:38.095Z,21.90
2018-01-24T06:34:05.802Z,19.77
2018-01-24T06:36:33.339Z,16.47
2018-01-24T06:39:00.869Z,24.13
2018-01-24T06:41:28.374Z,20.93
2018-01-24T06:43:55.900Z,23.47
2018-01-24T06:46:23.409Z,19.80
2018-01-24T06:48:50.952Z,23.43
2018-01-24T06:51:18.467Z,17.30
2018-01-24T06:53:46.003Z,20.90
2018-01-24T06:56:14.284Z,20.30
2018-01-24T06:58:42.591Z,19.23
2018-01-24T07:01:10.108Z,20.30
2018-01-24T07:03:38.421Z,16.47
2018-01-24T07:06:05.936Z,15.67
2018-01-24T07:08:33.455Z,19.07
2018-01-24T07:11:00.993Z,26.40
2018-01-24T07:13:40.408Z,20.47
2018-01-24T07:16:07.942Z,19.03
2018-01-24T07:18:35.448Z,15.07
2018-01-24T07:21:02.976Z,12.17
2018-01-24T07:23:31.255Z,17.70
2018-01-24T07:25:59.554Z,14.67
2018-01-24T07:28:27.073Z,16.37
2018-01-24T07:30:54.595Z,12.60
2018-01-24T07:33:22.105Z,14.00
2018-01-24T07:35:49.627Z,16.37
2018-01-24T07:38:17.135Z,12.83
2018-01-24T07:40:44.668Z,11.70
2018-01-24T07:43:12.948Z,15.20
2018-01-24T07:45:41.216Z,14.77
2018-01-24T07:48:09.516Z,18.37
2018-01-24T07:50:37.029Z,14.40
2018-01-24T07:53:04.562Z,12.20
2018-01-24T07:55:32.068Z,15.20
2018-01-24T07:58:00.364Z,11.43
2018-01-24T08:00:27.879Z,13.67
2018-01-24T08:02:55.418Z,11.70
2018-01-24T08:05:22.924Z,14.27
2018-01-24T08:07:50.456Z,16.60
2018-01-24T08:10:17.968Z,12.23
2018-01-24T08:12:45.491Z,13.97
2018-01-24T08:15:13.768Z,14.70
2018-01-24T08:17:42.087Z,13.27
2018-01-24T08:20:09.604Z,10.43
2018-01-24T08:22:37.880Z,12.30
2018-01-24T08:25:06.171Z,11.50
2018-01-24T08:27:33.691Z,10.93
2018-01-24T08:30:01.220Z,7.33
2018-01-24T08:32:28.748Z,8.53
2018-01-24T08:34:56.280Z,9.33
2018-01-24T08:37:24.553Z,8.00
2018-01-24T08:39:52.079Z,8.87
2018-01-24T08:42:19.585Z,6.50
2018-01-24T08:44:47.879Z,5.93
2018-01-24T08:47:15.390Z,6.90
2018-01-24T08:49:42.915Z,7.23
2018-01-24T08:52:10.423Z,9.27
2018-01-24T08:54:37.959Z,6.33
2018-01-24T08:57:05.472Z,5.83
2018-01-24T08:59:32.987Z,5.37
2018-01-24T09:02:18.876Z,5.50
2018-01-24T09:05:03.844Z,5.77
2018-01-24T09:07:48.885Z,5.87
2018-01-24T09:10:34.121Z,5.83
2018-01-24T09:13:19.303Z,6.67
2018-01-24T09:16:04.412Z,4.17
2018-01-24T09:18:49.346Z,4.13
2018-01-24T09:21:34.430Z,4.93
2018-01-24T09:27:18.855Z,4.30
2018-01-24T09:29:47.128Z,3.80
2018-01-24T09:32:15.429Z,7.87
2018-01-24T09:34:43.700Z,3.83
2018-01-24T09:37:11.233Z,3.57
2018-01-24T09:39:38.739Z,5.37
2018-01-24T09:42:06.266Z,6.33
2018-01-24T09:44:33.785Z,5.00
2018-01-24T09:47:01.316Z,4.67
2018-01-24T09:49:28.831Z,3.37
2018-01-24T09:51:56.370Z,5.50
2018-01-24T09:54:24.652Z,3.63
2018-01-24T09:56:52.212Z,4.87
2018-01-24T09:59:20.496Z,3.83
2018-01-24T10:01:48.044Z,3.10
2018-01-24T10:04:16.327Z,2.83
2018-01-24T10:06:44.624Z,4.23
2018-01-24T10:09:12.136Z,4.40
2018-01-24T10:11:39.676Z,5.03
2018-01-24T10:14:07.192Z,3.13
2018-01-24T10:16:34.717Z,2.70
2018-01-24T10:19:02.252Z,2.73
2018-01-24T10:21:29.763Z,4.67
2018-01-24T10:23:57.307Z,4.50
2018-01-24T10:26:25.589Z,4.07
2018-01-24T10:28:53.888Z,3.67
2018-01-24T10:31:21.399Z,3.53
2018-01-24T10:33:48.934Z,4.20
2018-01-24T10:36:16.456Z,5.07
2018-01-24T10:38:43.999Z,3.13
2018-01-24T10:41:11.512Z,2.77
2018-01-24T10:43:39.040Z,2.70
2018-01-24T10:46:06.552Z,3.23
2018-01-24T10:48:34.063Z,4.03
2018-01-24T10:51:01.595Z,3.70
2018-01-24T10:53:29.117Z,2.53
2018-01-24T10:55:56.661Z,1.97
2018-01-24T10:58:24.171Z,3.00
2018-01-24T11:00:51.709Z,5.33
2018-01-24T11:03:19.989Z,7.60
2018-01-24T11:05:48.285Z,2.47
2018-01-24T11:08:15.799Z,2.43
2018-01-24T11:10:43.328Z,2.20
2018-01-24T11:13:10.842Z,2.33
2018-01-24T11:15:39.148Z,4.45
2018-01-24T11:18:06.672Z,2.47
2018-01-24T11:20:34.975Z,2.47
2018-01-24T11:23:02.496Z,2.97
2018-01-24T11:25:30.781Z,3.20
2018-01-24T11:27:59.089Z,3.30
2018-01-24T11:30:26.616Z,2.33
2018-01-24T11:32:54.916Z,2.20
2018-01-24T11:35:22.456Z,2.57
2018-01-24T11:37:50.007Z,2.47
2018-01-24T11:40:18.299Z,2.57
2018-01-24T11:42:45.842Z,2.57
2018-01-24T11:45:14.124Z,3.53
2018-01-24T11:47:42.646Z,1.70
2018-01-24T11:50:10.167Z,2.33
2018-01-24T11:52:37.713Z,4.03
2018-01-24T11:55:05.996Z,2.60
2018-01-24T11:57:34.301Z,2.47
2018-01-24T12:00:01.827Z,3.20
2018-01-24T12:02:30.147Z,2.47
2018-01-24T12:04:57.664Z,2.25
2018-01-24T12:07:25.936Z,3.10
2018-01-24T12:09:54.236Z,2.07
2018-01-24T12:12:21.748Z,3.97
2018-01-24T12:14:49.279Z,2.53
2018-01-24T12:17:16.792Z,3.90
2018-01-24T12:19:45.094Z,3.83
2018-01-24T12:22:12.604Z,2.57
2018-01-24T12:24:40.141Z,7.87
2018-01-24T12:27:07.661Z,1.70
2018-01-24T12:29:35.219Z,1.37
2018-01-24T12:32:02.732Z,1.77
2018-01-24T12:34:30.272Z,2.80
2018-01-24T12:36:57.783Z,1.80
2018-01-24T12:39:25.320Z,2.27
2018-01-24T12:41:53.614Z,2.17
2018-01-24T12:44:21.146Z,2.20
2018-01-24T12:46:49.425Z,2.03
2018-01-24T12:49:17.732Z,4.83
2018-01-24T12:51:45.252Z,1.42
2018-01-24T12:54:12.819Z,1.60
2018-01-24T12:56:41.148Z,4.15
2018-01-24T12:59:08.693Z,2.05
2018-01-24T13:01:36.211Z,2.75
2018-01-24T13:04:03.756Z,2.08
2018-01-24T13:06:31.266Z,2.37
2018-01-24T13:08:58.808Z,3.00
2018-01-24T13:11:26.329Z,2.40
2018-01-24T13:13:53.876Z,2.37
2018-01-24T13:16:21.391Z,2.75
2018-01-24T13:18:48.911Z,1.90
2018-01-24T13:21:16.443Z,3.80
2018-01-24T13:23:43.956Z,2.17
2018-01-24T13:26:11.497Z,1.93
2018-01-24T13:28:39.784Z,2.43
2018-01-24T13:31:07.324Z,2.43
2018-01-24T13:33:35.607Z,2.97
2018-01-24T13:36:03.952Z,3.37
2018-01-24T13:38:31.488Z,1.87
2018-01-24T13:40:59.030Z,2.13
2018-01-24T13:43:26.546Z,3.07
2018-01-24T13:45:54.079Z,2.70
2018-01-24T13:48:21.597Z,2.33
2018-01-24T13:50:49.142Z,2.57
2018-01-24T13:53:17.233Z,3.27
2018-01-24T13:55:44.740Z,3.47
2018-01-24T13:58:12.277Z,6.63
2018-01-24T14:00:39.791Z,4.73
2018-01-24T14:03:07.337Z,2.73
2018-01-24T14:05:35.624Z,2.20
2018-01-24T14:08:03.160Z,3.43
2018-01-24T14:10:30.672Z,3.00
2018-01-24T14:12:58.204Z,1.67
2018-01-24T14:15:25.725Z,2.87
2018-01-24T14:17:53.263Z,2.40
2018-01-24T14:20:20.782Z,1.63
2018-01-24T14:22:48.328Z,1.73
2018-01-24T14:25:15.852Z,1.97
2018-01-24T14:27:43.391Z,1.93
2018-01-24T14:30:10.908Z,5.50
2018-01-24T14:32:38.445Z,1.60
2018-01-24T14:35:06.724Z,4.40
2018-01-24T14:37:35.040Z,2.50
2018-01-24T14:40:02.564Z,3.13
2018-01-24T14:42:30.913Z,2.03
2018-01-24T14:44:58.431Z,1.43
2018-01-24T14:47:26.036Z,2.43
2018-01-24T14:49:53.536Z,2.10
2018-01-24T14:52:21.087Z,3.07
2018-01-24T14:54:48.609Z,3.97
2018-01-24T14:57:16.145Z,6.03
2018-01-24T14:59:43.665Z,6.27
2018-01-24T15:02:11.208Z,5.00
2018-01-24T15:04:39.491Z,7.77
2018-01-24T15:07:07.036Z,10.17
2018-01-24T15:09:35.319Z,5.33
2018-01-24T15:12:03.623Z,7.90
2018-01-24T15:14:31.154Z,11.73
2018-01-24T15:16:59.464Z,14.27
2018-01-24T15:19:26.989Z,18.77
2018-01-24T15:21:55.295Z,14.53
2018-01-24T15:24:22.812Z,7.03
2018-01-24T15:26:51.111Z,9.23
2018-01-24T15:29:18.620Z,8.07
2018-01-24T15:31:46.164Z,7.37
2018-01-24T15:34:13.737Z,63.83
2018-01-24T15:36:41.265Z,137.37
2018-01-24T15:39:08.787Z,135.80
2018-01-24T15:41:37.108Z,104.40
2018-01-24T15:44:08.703Z,54.50
2018-01-24T15:46:36.356Z,43.40
2018-01-24T15:49:03.897Z,24.67
2018-01-24T15:51:31.413Z,10.77
2018-01-24T15:53:58.952Z,22.37
2018-01-24T15:56:27.243Z,119.80
2018-01-24T15:58:54.785Z,21.40
2018-01-24T16:01:23.092Z,192.17
2018-01-24T16:03:50.604Z,27.57
2018-01-24T16:06:18.161Z,18.50
2018-01-24T16:08:45.676Z,10.03
2018-01-24T16:11:13.217Z,18.70
2018-01-24T16:13:40.740Z,14.23
2018-01-24T16:16:09.045Z,12.83
2018-01-24T16:18:36.552Z,9.67
2018-01-24T16:21:04.096Z,8.37
2018-01-24T16:23:31.605Z,7.13
2018-01-24T16:25:59.125Z,6.90
2018-01-24T16:28:26.656Z,3.60
2018-01-24T16:30:54.168Z,7.47
2018-01-24T16:33:21.691Z,7.47
2018-01-24T16:35:49.217Z,6.37
2018-01-24T16:38:16.751Z,6.70
2018-01-24T16:40:45.028Z,6.10
2018-01-24T16:43:12.568Z,6.63
2018-01-24T16:45:40.082Z,6.23
2018-01-24T16:48:07.642Z,4.97
2018-01-24T16:50:35.210Z,5.70
2018-01-24T16:53:02.701Z,6.53
2018-01-24T16:55:30.216Z,6.40
2018-01-24T16:57:57.728Z,11.40
2018-01-24T17:00:26.029Z,13.30
2018-01-24T17:02:53.562Z,12.87
2018-01-24T17:05:21.876Z,13.57
2018-01-24T17:07:49.429Z,10.33
2018-01-24T17:10:16.960Z,8.13
2018-01-24T17:12:45.240Z,11.07
2018-01-24T17:15:13.539Z,12.47
2018-01-24T17:17:41.064Z,6.30
2018-01-24T17:20:08.620Z,8.30
2018-01-24T17:22:36.900Z,7.10
2018-01-24T17:25:04.464Z,6.80
2018-01-24T17:27:32.735Z,7.60
2018-01-24T17:30:00.269Z,7.23
2018-01-24T17:32:27.875Z,7.60
2018-01-24T17:34:55.423Z,11.80
2018-01-24T17:37:23.015Z,7.77
2018-01-24T17:39:50.615Z,8.33
2018-01-24T17:42:18.970Z,95.80
2018-01-24T17:44:46.497Z,50.07
2018-01-24T17:47:14.050Z,21.67
2018-01-24T17:49:41.564Z,167.83
2018-01-24T17:52:09.118Z,137.23
2018-01-24T17:54:37.416Z,84.13
2018-01-24T17:57:05.721Z,34.63
2018-01-24T17:59:33.252Z,53.33
2018-01-24T18:02:01.556Z,52.77
2018-01-24T18:04:29.139Z,39.40
2018-01-24T18:06:56.691Z,49.20
2018-01-24T18:09:24.221Z,35.67
2018-01-24T18:11:51.812Z,31.37
2018-01-24T18:14:19.332Z,35.07
2018-01-24T18:16:46.916Z,44.20
2018-01-24T18:19:14.483Z,46.93
2018-01-24T18:21:42.075Z,35.20
2018-01-24T18:24:09.591Z,52.30
2018-01-24T18:26:37.179Z,66.63
2018-01-24T18:29:04.754Z,96.50
2018-01-24T18:31:33.119Z,42.83
2018-01-24T18:34:00.706Z,32.90
2018-01-24T18:36:29.059Z,32.60
2018-01-24T18:38:56.651Z,31.27
2018-01-24T18:41:24.999Z,27.27
2018-01-24T18:43:52.591Z,25.67
2018-01-24T18:46:20.948Z,22.30
2018-01-24T18:48:49.310Z,27.00
2018-01-24T18:51:16.832Z,38.30
2018-01-24T18:53:44.457Z,36.30
2018-01-24T18:56:12.792Z,36.13
2018-01-24T18:58:40.335Z,34.33
2018-01-24T19:01:07.864Z,29.27
2018-01-24T19:03:35.460Z,38.90
2018-01-24T19:06:02.980Z,36.23
2018-01-24T19:08:30.523Z,32.87
2018-01-24T19:10:58.867Z,34.63
2018-01-24T19:13:26.412Z,45.20
2018-01-24T19:15:53.985Z,42.93
2018-01-24T19:18:21.528Z,48.83
2018-01-24T19:20:49.052Z,42.90
2018-01-24T19:23:16.610Z,41.73
2018-01-24T19:25:44.207Z,40.47
2018-01-24T19:28:11.726Z,40.87
2018-01-24T19:30:39.317Z,42.80
2018-01-24T19:33:06.845Z,44.87
2018-01-24T19:35:34.382Z,43.07
2018-01-24T19:38:01.908Z,47.93
2018-01-24T19:40:29.458Z,39.83
2018-01-24T19:42:57.038Z,46.70
2018-01-24T19:45:24.572Z,42.17
2018-01-24T19:47:52.083Z,34.00
2018-01-24T19:50:20.429Z,46.33
2018-01-24T19:52:48.019Z,41.00
2018-01-24T19:55:16.407Z,29.63
2018-01-24T19:57:43.951Z,40.30
2018-01-24T20:00:11.793Z,45.27
2018-01-24T20:02:39.401Z,38.27
2018-01-24T20:05:07.010Z,37.67
2018-01-24T20:07:35.476Z,49.10
2018-01-24T20:10:03.012Z,47.60
2018-01-24T20:12:30.555Z,33.67
2018-01-24T20:14:58.378Z,43.83
2018-01-24T20:17:25.939Z,42.50
2018-01-24T20:19:53.711Z,59.10
2018-01-24T20:22:22.043Z,61.57
2018-01-24T20:24:49.585Z,51.63
2018-01-24T20:27:17.168Z,59.73
2018-01-24T20:29:44.689Z,57.90
2018-01-24T20:32:12.381Z,52.60
2018-01-24T20:34:39.927Z,46.63
2018-01-24T20:37:07.652Z,45.27
2018-01-24T20:39:36.091Z,42.80
2018-01-24T20:42:03.689Z,36.60
2018-01-24T20:44:32.195Z,37.50
2018-01-24T20:46:59.868Z,43.87
2018-01-24T20:49:27.400Z,41.03
2018-01-24T20:51:54.912Z,45.30
2018-01-24T20:54:22.511Z,55.97
2018-01-24T20:56:50.843Z,52.77
2018-01-24T20:59:18.427Z,51.80
2018-01-24T21:01:45.944Z,47.10
2018-01-24T21:04:13.527Z,43.40
2018-01-24T21:06:41.081Z,34.30
2018-01-24T21:09:08.620Z,43.83
2018-01-24T21:11:36.179Z,52.43
2018-01-24T21:14:03.774Z,54.80
2018-01-24T21:16:31.288Z,52.83
2018-01-24T21:18:58.886Z,49.03
2018-01-24T21:21:26.452Z,48.90
2018-01-24T21:23:53.984Z,39.37
2018-01-24T21:26:21.564Z,44.50
2018-01-24T21:28:55.835Z,62.40
2018-01-24T21:31:35.216Z,71.93
2018-01-24T21:34:14.671Z,47.17
2018-01-24T21:36:58.531Z,53.37
2018-01-24T21:39:26.085Z,42.10
2018-01-24T21:41:53.600Z,53.73
2018-01-24T21:44:21.158Z,64.57
2018-01-24T21:46:48.745Z,64.83
2018-01-24T21:49:16.315Z,45.03
2018-01-24T21:51:44.691Z,78.47
2018-01-24T21:54:12.987Z,48.70
2018-01-24T21:56:40.580Z,37.07
2018-01-24T21:59:08.162Z,54.30
2018-01-24T22:01:35.782Z,37.47
2018-01-24T22:04:03.379Z,43.60
2018-01-24T22:06:30.915Z,54.23
2018-01-24T22:08:58.492Z,68.10
2018-01-24T22:11:26.047Z,68.83
2018-01-24T22:13:53.572Z,107.27
2018-01-24T22:16:21.167Z,87.40
2018-01-24T22:18:48.722Z,67.33
2018-01-24T22:21:16.235Z,63.40
2018-01-24T22:23:43.799Z,122.73
2018-01-24T22:26:11.354Z,54.37
2018-01-24T22:28:38.888Z,36.80
2018-01-24T22:31:07.180Z,48.50
2018-01-24T22:33:35.481Z,29.50
2018-01-24T22:36:03.229Z,35.00
2018-01-24T22:38:30.768Z,36.53
2018-01-24T22:40:59.052Z,33.57
2018-01-24T22:43:27.398Z,28.47
2018-01-24T22:45:54.908Z,30.20
2018-01-24T22:48:23.264Z,31.13
2018-01-24T22:50:51.545Z,30.10
2018-01-24T22:53:19.096Z,28.77
2018-01-24T22:55:47.376Z,29.23
2018-01-24T22:58:14.891Z,29.33
2018-01-24T23:00:42.427Z,32.10
2018-01-24T23:03:09.940Z,37.40
2018-01-24T23:05:38.244Z,31.23
2018-01-24T23:08:05.756Z,31.60
2018-01-24T23:10:34.064Z,33.13
2018-01-24T23:13:01.578Z,27.50
2018-01-24T23:15:29.137Z,29.80
2018-01-24T23:17:56.653Z,30.37
2018-01-24T23:20:24.188Z,31.30
2018-01-24T23:22:52.471Z,28.20
2018-01-24T23:25:20.035Z,26.87
2018-01-24T23:27:47.565Z,24.07
2018-01-24T23:30:15.081Z,24.70
2018-01-24T23:32:42.628Z,28.10
2018-01-24T23:35:10.148Z,32.47
2018-01-24T23:37:38.461Z,29.70
2018-01-24T23:40:05.979Z,39.60
2018-01-24T23:42:34.284Z,29.93
2018-01-24T23:45:01.808Z,30.83
2018-01-24T23:47:30.116Z,31.47
2018-01-24T23:49:57.640Z,25.10
2018-01-24T23:52:25.944Z,25.53
2018-01-24T23:54:53.470Z,33.73
2018-01-24T23:57:21.004Z,89.87
2018-01-24T23:59:48.548Z,61.00
